sensor_id;sensor_type;location;lat;lon;timestamp;P1;durP1;ratioP1;P2;durP2;ratioP2
53875;SDS011;39789;53.216;5.624;2022-10-31T00:00:22;17.45;;;10.15;;
53875;SDS011;39789;53.216;5.624;2022-10-31T00:02:48;16.77;;;10.07;;
53875;SDS011;39789;53.216;5.624;2022-10-31T00:05:13;14.88;;;10.93;;
53875;SDS011;39789;53.216;5.624;2022-10-31T00:07:39;18.42;;;10.10;;
53875;SDS011;39789;53.216;5.624;2022-10-31T00:10:05;14.82;;;8.88;;
53875;SDS011;39789;53.216;5.624;2022-10-31T00:12:31;14.45;;;9.30;;
53875;SDS011;39789;53.216;5.624;2022-10-31T00:14:57;14.93;;;9.00;;
53875;SDS011;39789;53.216;5.624;2022-10-31T00:17:22;12.95;;;8.50;;
53875;SDS011;39789;53.216;5.624;2022-10-31T00:19:48;17.55;;;9.25;;
53875;SDS011;39789;53.216;5.624;2022-10-31T00:22:13;10.73;;;8.63;;
53875;SDS011;39789;53.216;5.624;2022-10-31T00:24:39;17.30;;;9.80;;
53875;SDS011;39789;53.216;5.624;2022-10-31T00:27:04;13.20;;;9.00;;
53875;SDS011;39789;53.216;5.624;2022-10-31T00:29:30;16.13;;;9.15;;
53875;SDS011;39789;53.216;5.624;2022-10-31T00:31:55;19.25;;;10.20;;
53875;SDS011;39789;53.216;5.624;2022-10-31T00:34:21;15.02;;;9.75;;
53875;SDS011;39789;53.216;5.624;2022-10-31T00:36:46;17.05;;;11.30;;
53875;SDS011;39789;53.216;5.624;2022-10-31T00:39:12;24.50;;;13.85;;
53875;SDS011;39789;53.216;5.624;2022-10-31T00:41:38;21.00;;;13.00;;
53875;SDS011;39789;53.216;5.624;2022-10-31T00:44:03;20.80;;;11.70;;
53875;SDS011;39789;53.216;5.624;2022-10-31T00:46:29;24.25;;;12.10;;
53875;SDS011;39789;53.216;5.624;2022-10-31T00:48:54;16.38;;;11.27;;
53875;SDS011;39789;53.216;5.624;2022-10-31T00:51:20;18.70;;;11.57;;
53875;SDS011;39789;53.216;5.624;2022-10-31T00:53:46;18.00;;;12.68;;
53875;SDS011;39789;53.216;5.624;2022-10-31T00:56:11;19.77;;;11.50;;
53875;SDS011;39789;53.216;5.624;2022-10-31T00:58:37;24.13;;;12.35;;
53875;SDS011;39789;53.216;5.624;2022-10-31T01:01:02;24.08;;;12.73;;
53875;SDS011;39789;53.216;5.624;2022-10-31T01:03:29;16.92;;;11.25;;
53875;SDS011;39789;53.216;5.624;2022-10-31T01:05:57;17.55;;;11.80;;
53875;SDS011;39789;53.216;5.624;2022-10-31T01:08:27;22.02;;;12.80;;
53875;SDS011;39789;53.216;5.624;2022-10-31T01:13:39;25.48;;;12.73;;
53875;SDS011;39789;53.216;5.624;2022-10-31T01:16:05;20.52;;;12.48;;
53875;SDS011;39789;53.216;5.624;2022-10-31T01:18:32;18.75;;;11.50;;
53875;SDS011;39789;53.216;5.624;2022-10-31T01:20:59;20.80;;;12.60;;
53875;SDS011;39789;53.216;5.624;2022-10-31T01:23:33;17.52;;;11.45;;
53875;SDS011;39789;53.216;5.624;2022-10-31T01:26:00;22.15;;;12.10;;
53875;SDS011;39789;53.216;5.624;2022-10-31T01:28:32;20.10;;;12.02;;
53875;SDS011;39789;53.216;5.624;2022-10-31T01:31:06;20.02;;;12.25;;
53875;SDS011;39789;53.216;5.624;2022-10-31T01:33:33;23.60;;;11.90;;
53875;SDS011;39789;53.216;5.624;2022-10-31T01:35:59;18.65;;;11.02;;
53875;SDS011;39789;53.216;5.624;2022-10-31T01:38:25;21.52;;;10.82;;
53875;SDS011;39789;53.216;5.624;2022-10-31T01:40:51;21.50;;;11.32;;
53875;SDS011;39789;53.216;5.624;2022-10-31T01:43:17;18.83;;;10.85;;
53875;SDS011;39789;53.216;5.624;2022-10-31T01:45:44;18.98;;;11.43;;
53875;SDS011;39789;53.216;5.624;2022-10-31T01:48:16;17.25;;;10.52;;
53875;SDS011;39789;53.216;5.624;2022-10-31T01:50:47;15.90;;;10.80;;
53875;SDS011;39789;53.216;5.624;2022-10-31T01:53:16;18.55;;;11.30;;
53875;SDS011;39789;53.216;5.624;2022-10-31T01:55:42;17.20;;;10.90;;
53875;SDS011;39789;53.216;5.624;2022-10-31T01:58:13;14.18;;;11.10;;
53875;SDS011;39789;53.216;5.624;2022-10-31T02:00:44;19.80;;;11.32;;
53875;SDS011;39789;53.216;5.624;2022-10-31T02:03:13;12.73;;;10.20;;
53875;SDS011;39789;53.216;5.624;2022-10-31T02:05:39;20.23;;;11.00;;
53875;SDS011;39789;53.216;5.624;2022-10-31T02:10:38;15.25;;;11.13;;
53875;SDS011;39789;53.216;5.624;2022-10-31T02:13:07;20.80;;;13.25;;
53875;SDS011;39789;53.216;5.624;2022-10-31T02:15:33;24.20;;;14.43;;
53875;SDS011;39789;53.216;5.624;2022-10-31T02:18:00;23.70;;;12.82;;
53875;SDS011;39789;53.216;5.624;2022-10-31T02:20:28;21.33;;;13.90;;
53875;SDS011;39789;53.216;5.624;2022-10-31T02:39:12;24.50;;;16.52;;
53875;SDS011;39789;53.216;5.624;2022-10-31T02:41:52;23.95;;;16.38;;
53875;SDS011;39789;53.216;5.624;2022-10-31T02:44:58;26.40;;;16.77;;
53875;SDS011;39789;53.216;5.624;2022-10-31T02:47:36;24.27;;;16.55;;
53875;SDS011;39789;53.216;5.624;2022-10-31T02:50:07;29.17;;;16.75;;
53875;SDS011;39789;53.216;5.624;2022-10-31T02:52:37;26.23;;;16.40;;
53875;SDS011;39789;53.216;5.624;2022-10-31T02:55:10;26.33;;;17.20;;
53875;SDS011;39789;53.216;5.624;2022-10-31T02:57:37;28.67;;;17.88;;
53875;SDS011;39789;53.216;5.624;2022-10-31T03:00:07;28.85;;;18.02;;
53875;SDS011;39789;53.216;5.624;2022-10-31T03:02:48;27.48;;;17.33;;
53875;SDS011;39789;53.216;5.624;2022-10-31T03:05:34;29.58;;;18.00;;
53875;SDS011;39789;53.216;5.624;2022-10-31T03:08:26;25.42;;;16.17;;
53875;SDS011;39789;53.216;5.624;2022-10-31T03:16:14;24.73;;;18.10;;
53875;SDS011;39789;53.216;5.624;2022-10-31T03:18:44;24.42;;;17.35;;
53875;SDS011;39789;53.216;5.624;2022-10-31T03:21:20;26.98;;;17.17;;
53875;SDS011;39789;53.216;5.624;2022-10-31T03:24:17;24.88;;;17.33;;
53875;SDS011;39789;53.216;5.624;2022-10-31T03:26:47;26.55;;;17.20;;
53875;SDS011;39789;53.216;5.624;2022-10-31T03:29:16;24.25;;;16.17;;
53875;SDS011;39789;53.216;5.624;2022-10-31T03:31:47;27.60;;;17.05;;
53875;SDS011;39789;53.216;5.624;2022-10-31T03:34:26;26.80;;;17.88;;
53875;SDS011;39789;53.216;5.624;2022-10-31T03:36:54;22.83;;;16.80;;
53875;SDS011;39789;53.216;5.624;2022-10-31T03:39:22;23.13;;;15.82;;
53875;SDS011;39789;53.216;5.624;2022-10-31T03:41:53;28.15;;;16.50;;
53875;SDS011;39789;53.216;5.624;2022-10-31T03:44:22;23.10;;;15.45;;
53875;SDS011;39789;53.216;5.624;2022-10-31T03:46:49;23.08;;;16.50;;
53875;SDS011;39789;53.216;5.624;2022-10-31T03:49:15;23.75;;;16.00;;
53875;SDS011;39789;53.216;5.624;2022-10-31T03:51:46;21.33;;;15.38;;
53875;SDS011;39789;53.216;5.624;2022-10-31T03:54:49;21.63;;;16.52;;
53875;SDS011;39789;53.216;5.624;2022-10-31T03:57:27;23.02;;;15.13;;
53875;SDS011;39789;53.216;5.624;2022-10-31T04:00:03;22.27;;;14.90;;
53875;SDS011;39789;53.216;5.624;2022-10-31T04:02:30;25.45;;;15.50;;
53875;SDS011;39789;53.216;5.624;2022-10-31T04:04:59;22.85;;;14.70;;
53875;SDS011;39789;53.216;5.624;2022-10-31T04:07:26;21.88;;;14.75;;
53875;SDS011;39789;53.216;5.624;2022-10-31T04:09:55;22.63;;;15.85;;
53875;SDS011;39789;53.216;5.624;2022-10-31T04:12:25;23.35;;;15.07;;
53875;SDS011;39789;53.216;5.624;2022-10-31T04:14:54;19.55;;;14.40;;
53875;SDS011;39789;53.216;5.624;2022-10-31T04:17:21;25.25;;;15.05;;
53875;SDS011;39789;53.216;5.624;2022-10-31T04:19:49;22.30;;;16.10;;
53875;SDS011;39789;53.216;5.624;2022-10-31T04:22:15;26.13;;;16.13;;
53875;SDS011;39789;53.216;5.624;2022-10-31T04:24:40;21.30;;;15.13;;
53875;SDS011;39789;53.216;5.624;2022-10-31T04:27:06;26.95;;;15.50;;
53875;SDS011;39789;53.216;5.624;2022-10-31T04:29:32;26.33;;;17.23;;
53875;SDS011;39789;53.216;5.624;2022-10-31T04:31:58;29.42;;;17.90;;
53875;SDS011;39789;53.216;5.624;2022-10-31T04:34:23;26.45;;;17.90;;
53875;SDS011;39789;53.216;5.624;2022-10-31T04:36:49;25.65;;;18.42;;
53875;SDS011;39789;53.216;5.624;2022-10-31T04:39:14;23.08;;;17.23;;
53875;SDS011;39789;53.216;5.624;2022-10-31T04:41:40;28.77;;;20.20;;
53875;SDS011;39789;53.216;5.624;2022-10-31T04:44:05;33.03;;;20.35;;
53875;SDS011;39789;53.216;5.624;2022-10-31T04:46:31;35.58;;;21.65;;
53875;SDS011;39789;53.216;5.624;2022-10-31T04:48:56;30.23;;;19.38;;
53875;SDS011;39789;53.216;5.624;2022-10-31T04:51:22;28.77;;;20.40;;
53875;SDS011;39789;53.216;5.624;2022-10-31T04:53:48;28.98;;;21.55;;
53875;SDS011;39789;53.216;5.624;2022-10-31T04:56:13;31.90;;;20.27;;
53875;SDS011;39789;53.216;5.624;2022-10-31T04:58:39;28.00;;;20.85;;
53875;SDS011;39789;53.216;5.624;2022-10-31T05:01:04;27.98;;;19.60;;
53875;SDS011;39789;53.216;5.624;2022-10-31T05:03:30;24.20;;;18.80;;
53875;SDS011;39789;53.216;5.624;2022-10-31T05:05:56;31.17;;;19.00;;
53875;SDS011;39789;53.216;5.624;2022-10-31T05:08:21;24.70;;;18.00;;
53875;SDS011;39789;53.216;5.624;2022-10-31T05:10:47;28.65;;;20.15;;
53875;SDS011;39789;53.216;5.624;2022-10-31T05:13:12;36.22;;;20.88;;
53875;SDS011;39789;53.216;5.624;2022-10-31T05:15:39;32.72;;;21.15;;
53875;SDS011;39789;53.216;5.624;2022-10-31T05:18:05;30.63;;;20.65;;
53875;SDS011;39789;53.216;5.624;2022-10-31T05:20:31;32.67;;;21.52;;
53875;SDS011;39789;53.216;5.624;2022-10-31T05:22:57;33.47;;;22.13;;
53875;SDS011;39789;53.216;5.624;2022-10-31T05:25:24;31.30;;;21.20;;
53875;SDS011;39789;53.216;5.624;2022-10-31T05:27:51;34.17;;;21.48;;
53875;SDS011;39789;53.216;5.624;2022-10-31T05:30:19;33.60;;;21.85;;
53875;SDS011;39789;53.216;5.624;2022-10-31T05:32:48;33.63;;;21.63;;
53875;SDS011;39789;53.216;5.624;2022-10-31T05:35:19;37.25;;;21.40;;
53875;SDS011;39789;53.216;5.624;2022-10-31T05:37:46;29.23;;;20.35;;
53875;SDS011;39789;53.216;5.624;2022-10-31T05:40:12;30.75;;;20.77;;
53875;SDS011;39789;53.216;5.624;2022-10-31T05:42:39;31.48;;;21.17;;
53875;SDS011;39789;53.216;5.624;2022-10-31T05:45:07;30.77;;;20.00;;
53875;SDS011;39789;53.216;5.624;2022-10-31T05:47:33;33.63;;;21.55;;
53875;SDS011;39789;53.216;5.624;2022-10-31T05:49:59;31.63;;;20.90;;
53875;SDS011;39789;53.216;5.624;2022-10-31T05:52:24;31.25;;;20.40;;
53875;SDS011;39789;53.216;5.624;2022-10-31T05:54:50;31.63;;;20.30;;
53875;SDS011;39789;53.216;5.624;2022-10-31T05:57:15;32.40;;;20.73;;
53875;SDS011;39789;53.216;5.624;2022-10-31T05:59:41;31.40;;;21.27;;
53875;SDS011;39789;53.216;5.624;2022-10-31T06:02:06;33.70;;;20.77;;
53875;SDS011;39789;53.216;5.624;2022-10-31T06:04:32;28.70;;;19.73;;
53875;SDS011;39789;53.216;5.624;2022-10-31T06:06:58;33.40;;;19.90;;
53875;SDS011;39789;53.216;5.624;2022-10-31T06:09:23;33.80;;;22.23;;
53875;SDS011;39789;53.216;5.624;2022-10-31T06:11:49;32.35;;;21.23;;
53875;SDS011;39789;53.216;5.624;2022-10-31T06:14:14;38.28;;;22.15;;
53875;SDS011;39789;53.216;5.624;2022-10-31T06:16:40;34.33;;;21.52;;
53875;SDS011;39789;53.216;5.624;2022-10-31T06:19:05;42.08;;;21.38;;
53875;SDS011;39789;53.216;5.624;2022-10-31T06:21:31;28.63;;;19.77;;
53875;SDS011;39789;53.216;5.624;2022-10-31T06:23:56;29.75;;;20.15;;
53875;SDS011;39789;53.216;5.624;2022-10-31T06:26:22;33.25;;;19.75;;
53875;SDS011;39789;53.216;5.624;2022-10-31T06:28:48;26.58;;;18.38;;
53875;SDS011;39789;53.216;5.624;2022-10-31T06:31:13;24.98;;;18.58;;
53875;SDS011;39789;53.216;5.624;2022-10-31T06:33:40;29.27;;;18.75;;
53875;SDS011;39789;53.216;5.624;2022-10-31T06:36:06;24.92;;;18.80;;
53875;SDS011;39789;53.216;5.624;2022-10-31T06:38:32;23.88;;;18.83;;
53875;SDS011;39789;53.216;5.624;2022-10-31T06:41:01;25.20;;;17.58;;
53875;SDS011;39789;53.216;5.624;2022-10-31T06:43:28;27.33;;;18.52;;
53875;SDS011;39789;53.216;5.624;2022-10-31T06:45:53;24.95;;;17.20;;
53875;SDS011;39789;53.216;5.624;2022-10-31T06:48:19;24.63;;;17.88;;
53875;SDS011;39789;53.216;5.624;2022-10-31T06:50:45;23.70;;;18.23;;
53875;SDS011;39789;53.216;5.624;2022-10-31T06:53:10;26.58;;;17.75;;
53875;SDS011;39789;53.216;5.624;2022-10-31T06:55:36;21.05;;;16.38;;
53875;SDS011;39789;53.216;5.624;2022-10-31T06:58:01;18.98;;;15.60;;
53875;SDS011;39789;53.216;5.624;2022-10-31T07:00:28;22.13;;;16.73;;
53875;SDS011;39789;53.216;5.624;2022-10-31T07:03:02;20.33;;;16.05;;
53875;SDS011;39789;53.216;5.624;2022-10-31T07:07:56;17.98;;;13.05;;
53875;SDS011;39789;53.216;5.624;2022-10-31T07:10:29;16.95;;;14.27;;
53875;SDS011;39789;53.216;5.624;2022-10-31T07:13:00;20.52;;;15.60;;
53875;SDS011;39789;53.216;5.624;2022-10-31T07:15:27;24.30;;;16.52;;
53875;SDS011;39789;53.216;5.624;2022-10-31T07:17:59;23.60;;;17.80;;
53875;SDS011;39789;53.216;5.624;2022-10-31T07:20:26;21.40;;;18.20;;
53875;SDS011;39789;53.216;5.624;2022-10-31T07:22:52;25.00;;;18.13;;
53875;SDS011;39789;53.216;5.624;2022-10-31T07:25:18;30.17;;;19.10;;
53875;SDS011;39789;53.216;5.624;2022-10-31T07:27:43;24.98;;;19.38;;
53875;SDS011;39789;53.216;5.624;2022-10-31T07:30:09;25.83;;;19.27;;
53875;SDS011;39789;53.216;5.624;2022-10-31T07:32:39;20.92;;;16.52;;
53875;SDS011;39789;53.216;5.624;2022-10-31T07:35:07;23.42;;;16.20;;
53875;SDS011;39789;53.216;5.624;2022-10-31T07:37:33;19.35;;;15.25;;
53875;SDS011;39789;53.216;5.624;2022-10-31T07:39:59;20.15;;;15.73;;
53875;SDS011;39789;53.216;5.624;2022-10-31T07:42:24;17.30;;;13.98;;
53875;SDS011;39789;53.216;5.624;2022-10-31T07:44:50;18.83;;;13.80;;
53875;SDS011;39789;53.216;5.624;2022-10-31T07:47:15;21.02;;;16.08;;
53875;SDS011;39789;53.216;5.624;2022-10-31T07:53:14;21.08;;;16.40;;
53875;SDS011;39789;53.216;5.624;2022-10-31T07:55:41;21.48;;;17.50;;
53875;SDS011;39789;53.216;5.624;2022-10-31T07:58:11;23.83;;;17.48;;
53875;SDS011;39789;53.216;5.624;2022-10-31T08:00:39;22.95;;;18.77;;
53875;SDS011;39789;53.216;5.624;2022-10-31T08:03:11;27.98;;;19.15;;
53875;SDS011;39789;53.216;5.624;2022-10-31T08:05:39;27.70;;;19.85;;
53875;SDS011;39789;53.216;5.624;2022-10-31T08:08:06;28.92;;;20.38;;
53875;SDS011;39789;53.216;5.624;2022-10-31T08:10:32;26.38;;;20.65;;
53875;SDS011;39789;53.216;5.624;2022-10-31T08:12:59;25.52;;;21.60;;
53875;SDS011;39789;53.216;5.624;2022-10-31T08:15:25;28.00;;;21.17;;
53875;SDS011;39789;53.216;5.624;2022-10-31T08:17:51;25.58;;;20.85;;
53875;SDS011;39789;53.216;5.624;2022-10-31T08:20:17;29.75;;;21.25;;
53875;SDS011;39789;53.216;5.624;2022-10-31T08:22:51;29.50;;;21.00;;
53875;SDS011;39789;53.216;5.624;2022-10-31T08:25:21;27.58;;;21.02;;
53875;SDS011;39789;53.216;5.624;2022-10-31T08:31:28;28.10;;;19.80;;
53875;SDS011;39789;53.216;5.624;2022-10-31T08:33:54;29.50;;;20.23;;
53875;SDS011;39789;53.216;5.624;2022-10-31T08:36:20;27.42;;;21.13;;
53875;SDS011;39789;53.216;5.624;2022-10-31T08:38:46;27.40;;;21.25;;
53875;SDS011;39789;53.216;5.624;2022-10-31T08:41:12;28.13;;;20.27;;
53875;SDS011;39789;53.216;5.624;2022-10-31T08:43:38;26.13;;;20.38;;
53875;SDS011;39789;53.216;5.624;2022-10-31T08:46:03;24.15;;;19.25;;
53875;SDS011;39789;53.216;5.624;2022-10-31T08:48:29;25.90;;;20.45;;
53875;SDS011;39789;53.216;5.624;2022-10-31T08:50:56;28.42;;;19.92;;
53875;SDS011;39789;53.216;5.624;2022-10-31T08:53:25;26.45;;;20.48;;
53875;SDS011;39789;53.216;5.624;2022-10-31T08:55:53;28.50;;;19.92;;
53875;SDS011;39789;53.216;5.624;2022-10-31T08:58:20;25.08;;;19.92;;
53875;SDS011;39789;53.216;5.624;2022-10-31T09:00:47;22.50;;;17.50;;
53875;SDS011;39789;53.216;5.624;2022-10-31T09:03:19;24.42;;;17.80;;
53875;SDS011;39789;53.216;5.624;2022-10-31T09:05:50;26.77;;;18.88;;
53875;SDS011;39789;53.216;5.624;2022-10-31T09:08:19;23.98;;;18.48;;
53875;SDS011;39789;53.216;5.624;2022-10-31T09:10:44;24.17;;;18.02;;
53875;SDS011;39789;53.216;5.624;2022-10-31T09:13:11;24.05;;;18.02;;
53875;SDS011;39789;53.216;5.624;2022-10-31T09:15:39;27.70;;;18.45;;
53875;SDS011;39789;53.216;5.624;2022-10-31T09:18:06;22.58;;;17.08;;
53875;SDS011;39789;53.216;5.624;2022-10-31T09:20:33;22.25;;;16.67;;
53875;SDS011;39789;53.216;5.624;2022-10-31T09:23:01;24.50;;;17.67;;
53875;SDS011;39789;53.216;5.624;2022-10-31T09:25:32;22.95;;;16.80;;
53875;SDS011;39789;53.216;5.624;2022-10-31T09:27:59;22.40;;;15.90;;
53875;SDS011;39789;53.216;5.624;2022-10-31T09:30:27;22.48;;;16.70;;
53875;SDS011;39789;53.216;5.624;2022-10-31T09:32:58;23.23;;;16.52;;
53875;SDS011;39789;53.216;5.624;2022-10-31T09:35:25;21.67;;;15.90;;
53875;SDS011;39789;53.216;5.624;2022-10-31T09:37:58;21.10;;;14.85;;
53875;SDS011;39789;53.216;5.624;2022-10-31T09:40:28;20.77;;;14.80;;
53875;SDS011;39789;53.216;5.624;2022-10-31T09:52:08;20.33;;;14.13;;
53875;SDS011;39789;53.216;5.624;2022-10-31T09:57:12;14.50;;;11.15;;
53875;SDS011;39789;53.216;5.624;2022-10-31T09:59:40;16.90;;;11.50;;
53875;SDS011;39789;53.216;5.624;2022-10-31T10:02:20;20.20;;;11.57;;
53875;SDS011;39789;53.216;5.624;2022-10-31T10:05:03;17.77;;;11.90;;
53875;SDS011;39789;53.216;5.624;2022-10-31T10:07:45;21.00;;;11.15;;
53875;SDS011;39789;53.216;5.624;2022-10-31T10:24:15;16.42;;;11.75;;
53875;SDS011;39789;53.216;5.624;2022-10-31T10:26:55;17.73;;;12.23;;
53875;SDS011;39789;53.216;5.624;2022-10-31T10:29:47;18.35;;;12.55;;
53875;SDS011;39789;53.216;5.624;2022-10-31T10:32:19;17.45;;;12.73;;
53875;SDS011;39789;53.216;5.624;2022-10-31T10:34:49;17.30;;;12.93;;
53875;SDS011;39789;53.216;5.624;2022-10-31T10:40:07;18.92;;;13.70;;
53875;SDS011;39789;53.216;5.624;2022-10-31T10:42:33;21.08;;;15.13;;
53875;SDS011;39789;53.216;5.624;2022-10-31T10:45:19;21.60;;;16.00;;
53875;SDS011;39789;53.216;5.624;2022-10-31T10:48:15;21.17;;;14.15;;
53875;SDS011;39789;53.216;5.624;2022-10-31T10:50:50;20.80;;;14.65;;
53875;SDS011;39789;53.216;5.624;2022-10-31T10:53:52;20.40;;;14.82;;
53875;SDS011;39789;53.216;5.624;2022-10-31T10:56:46;17.77;;;13.63;;
53875;SDS011;39789;53.216;5.624;2022-10-31T10:59:18;20.60;;;13.75;;
53875;SDS011;39789;53.216;5.624;2022-10-31T11:01:46;20.08;;;13.48;;
53875;SDS011;39789;53.216;5.624;2022-10-31T11:04:34;21.67;;;14.50;;
53875;SDS011;39789;53.216;5.624;2022-10-31T11:07:05;21.00;;;15.18;;
53875;SDS011;39789;53.216;5.624;2022-10-31T11:09:32;24.77;;;16.60;;
53875;SDS011;39789;53.216;5.624;2022-10-31T11:11:59;22.17;;;16.15;;
53875;SDS011;39789;53.216;5.624;2022-10-31T11:14:33;23.95;;;15.68;;
53875;SDS011;39789;53.216;5.624;2022-10-31T11:17:16;24.45;;;16.58;;
53875;SDS011;39789;53.216;5.624;2022-10-31T11:19:59;20.88;;;13.85;;
53875;SDS011;39789;53.216;5.624;2022-10-31T11:23:00;20.58;;;14.32;;
53875;SDS011;39789;53.216;5.624;2022-10-31T11:25:28;23.00;;;16.23;;
53875;SDS011;39789;53.216;5.624;2022-10-31T11:28:00;25.60;;;15.70;;
53875;SDS011;39789;53.216;5.624;2022-10-31T11:30:28;21.50;;;15.65;;
53875;SDS011;39789;53.216;5.624;2022-10-31T11:32:54;22.27;;;14.93;;
53875;SDS011;39789;53.216;5.624;2022-10-31T11:35:21;20.52;;;15.15;;
53875;SDS011;39789;53.216;5.624;2022-10-31T11:37:49;20.45;;;15.45;;
53875;SDS011;39789;53.216;5.624;2022-10-31T11:40:22;21.23;;;14.38;;
53875;SDS011;39789;53.216;5.624;2022-10-31T11:42:50;18.15;;;14.00;;
53875;SDS011;39789;53.216;5.624;2022-10-31T11:45:29;17.88;;;12.85;;
53875;SDS011;39789;53.216;5.624;2022-10-31T11:47:55;17.08;;;13.82;;
53875;SDS011;39789;53.216;5.624;2022-10-31T11:50:23;16.90;;;12.68;;
53875;SDS011;39789;53.216;5.624;2022-10-31T11:52:53;19.50;;;12.30;;
53875;SDS011;39789;53.216;5.624;2022-10-31T11:57:58;14.82;;;11.23;;
53875;SDS011;39789;53.216;5.624;2022-10-31T12:00:25;12.82;;;9.98;;
53875;SDS011;39789;53.216;5.624;2022-10-31T12:03:03;17.88;;;11.00;;
53875;SDS011;39789;53.216;5.624;2022-10-31T12:08:36;15.10;;;9.35;;
53875;SDS011;39789;53.216;5.624;2022-10-31T12:14:01;11.98;;;8.60;;
53875;SDS011;39789;53.216;5.624;2022-10-31T12:22:29;16.17;;;10.45;;
53875;SDS011;39789;53.216;5.624;2022-10-31T12:27:59;16.42;;;11.18;;
53875;SDS011;39789;53.216;5.624;2022-10-31T12:30:38;17.63;;;11.02;;
53875;SDS011;39789;53.216;5.624;2022-10-31T12:33:19;16.48;;;10.60;;
53875;SDS011;39789;53.216;5.624;2022-10-31T12:50:10;22.42;;;13.40;;
53875;SDS011;39789;53.216;5.624;2022-10-31T12:55:41;22.17;;;15.27;;
53875;SDS011;39789;53.216;5.624;2022-10-31T13:00:41;19.58;;;14.48;;
53875;SDS011;39789;53.216;5.624;2022-10-31T13:05:54;26.00;;;15.30;;
53875;SDS011;39789;53.216;5.624;2022-10-31T13:08:29;21.95;;;14.45;;
53875;SDS011;39789;53.216;5.624;2022-10-31T13:11:20;30.13;;;16.83;;
53875;SDS011;39789;53.216;5.624;2022-10-31T13:16:51;21.23;;;14.60;;
53875;SDS011;39789;53.216;5.624;2022-10-31T13:22:08;21.90;;;14.00;;
53875;SDS011;39789;53.216;5.624;2022-10-31T13:24:47;19.58;;;12.45;;
53875;SDS011;39789;53.216;5.624;2022-10-31T13:27:20;19.35;;;11.35;;
53875;SDS011;39789;53.216;5.624;2022-10-31T13:29:53;15.45;;;9.45;;
53875;SDS011;39789;53.216;5.624;2022-10-31T13:32:26;17.52;;;8.63;;
53875;SDS011;39789;53.216;5.624;2022-10-31T13:35:00;13.13;;;8.52;;
53875;SDS011;39789;53.216;5.624;2022-10-31T13:37:46;15.57;;;7.82;;
53875;SDS011;39789;53.216;5.624;2022-10-31T13:40:39;11.63;;;7.70;;
53875;SDS011;39789;53.216;5.624;2022-10-31T13:43:46;11.98;;;7.10;;
53875;SDS011;39789;53.216;5.624;2022-10-31T13:46:24;12.55;;;7.72;;
53875;SDS011;39789;53.216;5.624;2022-10-31T13:48:56;12.80;;;7.00;;
53875;SDS011;39789;53.216;5.624;2022-10-31T13:51:26;13.50;;;7.38;;
53875;SDS011;39789;53.216;5.624;2022-10-31T13:56:32;16.50;;;5.72;;
53875;SDS011;39789;53.216;5.624;2022-10-31T14:04:06;10.27;;;6.07;;
53875;SDS011;39789;53.216;5.624;2022-10-31T14:06:43;11.25;;;5.57;;
53875;SDS011;39789;53.216;5.624;2022-10-31T14:09:21;12.93;;;5.90;;
53875;SDS011;39789;53.216;5.624;2022-10-31T14:11:49;10.90;;;5.15;;
53875;SDS011;39789;53.216;5.624;2022-10-31T14:14:16;13.93;;;6.72;;
53875;SDS011;39789;53.216;5.624;2022-10-31T14:16:43;11.40;;;5.70;;
53875;SDS011;39789;53.216;5.624;2022-10-31T14:19:14;9.77;;;5.75;;
53875;SDS011;39789;53.216;5.624;2022-10-31T14:21:43;11.43;;;5.47;;
53875;SDS011;39789;53.216;5.624;2022-10-31T14:24:14;9.43;;;5.50;;
53875;SDS011;39789;53.216;5.624;2022-10-31T14:26:55;10.90;;;6.47;;
53875;SDS011;39789;53.216;5.624;2022-10-31T14:29:23;10.65;;;5.80;;
53875;SDS011;39789;53.216;5.624;2022-10-31T14:34:53;12.00;;;7.20;;
53875;SDS011;39789;53.216;5.624;2022-10-31T14:46:00;11.02;;;6.97;;
53875;SDS011;39789;53.216;5.624;2022-10-31T14:51:40;11.90;;;7.90;;
53875;SDS011;39789;53.216;5.624;2022-10-31T14:54:18;14.73;;;8.20;;
53875;SDS011;39789;53.216;5.624;2022-10-31T14:56:52;11.75;;;7.95;;
53875;SDS011;39789;53.216;5.624;2022-10-31T14:59:20;12.85;;;8.18;;
53875;SDS011;39789;53.216;5.624;2022-10-31T15:01:53;12.80;;;8.00;;
53875;SDS011;39789;53.216;5.624;2022-10-31T15:04:26;12.25;;;7.05;;
53875;SDS011;39789;53.216;5.624;2022-10-31T15:07:11;16.52;;;7.45;;
53875;SDS011;39789;53.216;5.624;2022-10-31T15:09:54;11.77;;;6.78;;
53875;SDS011;39789;53.216;5.624;2022-10-31T15:12:25;12.85;;;7.63;;
53875;SDS011;39789;53.216;5.624;2022-10-31T15:14:51;11.23;;;7.05;;
53875;SDS011;39789;53.216;5.624;2022-10-31T15:17:17;12.23;;;7.18;;
53875;SDS011;39789;53.216;5.624;2022-10-31T15:19:43;12.65;;;7.70;;
53875;SDS011;39789;53.216;5.624;2022-10-31T15:22:10;18.40;;;7.93;;
53875;SDS011;39789;53.216;5.624;2022-10-31T15:24:40;12.73;;;7.10;;
53875;SDS011;39789;53.216;5.624;2022-10-31T15:27:12;11.70;;;6.65;;
53875;SDS011;39789;53.216;5.624;2022-10-31T15:29:47;11.13;;;6.90;;
53875;SDS011;39789;53.216;5.624;2022-10-31T15:34:50;13.48;;;6.13;;
53875;SDS011;39789;53.216;5.624;2022-10-31T15:37:20;10.15;;;5.95;;
53875;SDS011;39789;53.216;5.624;2022-10-31T15:39:49;10.77;;;6.00;;
53875;SDS011;39789;53.216;5.624;2022-10-31T15:42:19;10.43;;;5.38;;
53875;SDS011;39789;53.216;5.624;2022-10-31T15:47:37;9.65;;;4.57;;
53875;SDS011;39789;53.216;5.624;2022-10-31T15:50:17;8.10;;;4.40;;
53875;SDS011;39789;53.216;5.624;2022-10-31T15:52:50;7.25;;;4.32;;
53875;SDS011;39789;53.216;5.624;2022-10-31T15:55:20;9.90;;;5.13;;
53875;SDS011;39789;53.216;5.624;2022-10-31T15:57:51;8.60;;;4.70;;
53875;SDS011;39789;53.216;5.624;2022-10-31T16:03:02;7.72;;;4.25;;
53875;SDS011;39789;53.216;5.624;2022-10-31T16:05:33;8.02;;;4.55;;
53875;SDS011;39789;53.216;5.624;2022-10-31T16:08:03;14.98;;;5.05;;
53875;SDS011;39789;53.216;5.624;2022-10-31T16:10:32;7.93;;;4.15;;
53875;SDS011;39789;53.216;5.624;2022-10-31T16:12:59;10.80;;;4.45;;
53875;SDS011;39789;53.216;5.624;2022-10-31T16:15:27;12.55;;;4.78;;
53875;SDS011;39789;53.216;5.624;2022-10-31T16:17:52;9.45;;;4.93;;
53875;SDS011;39789;53.216;5.624;2022-10-31T16:20:22;9.65;;;4.40;;
53875;SDS011;39789;53.216;5.624;2022-10-31T16:22:57;10.00;;;5.43;;
53875;SDS011;39789;53.216;5.624;2022-10-31T16:25:34;7.00;;;4.35;;
53875;SDS011;39789;53.216;5.624;2022-10-31T16:28:16;7.88;;;4.20;;
53875;SDS011;39789;53.216;5.624;2022-10-31T16:30:55;7.47;;;4.18;;
53875;SDS011;39789;53.216;5.624;2022-10-31T16:33:32;10.52;;;4.63;;
53875;SDS011;39789;53.216;5.624;2022-10-31T16:36:01;11.85;;;4.32;;
53875;SDS011;39789;53.216;5.624;2022-10-31T16:38:55;8.15;;;4.05;;
53875;SDS011;39789;53.216;5.624;2022-10-31T16:41:23;16.23;;;4.50;;
53875;SDS011;39789;53.216;5.624;2022-10-31T16:43:53;12.82;;;4.97;;
53875;SDS011;39789;53.216;5.624;2022-10-31T16:46:22;14.68;;;5.35;;
53875;SDS011;39789;53.216;5.624;2022-10-31T16:51:41;9.05;;;4.53;;
53875;SDS011;39789;53.216;5.624;2022-10-31T16:54:07;7.97;;;5.15;;
53875;SDS011;39789;53.216;5.624;2022-10-31T16:56:35;8.68;;;4.82;;
53875;SDS011;39789;53.216;5.624;2022-10-31T16:59:02;10.27;;;5.57;;
53875;SDS011;39789;53.216;5.624;2022-10-31T17:01:30;8.70;;;5.32;;
53875;SDS011;39789;53.216;5.624;2022-10-31T17:03:58;9.57;;;5.80;;
53875;SDS011;39789;53.216;5.624;2022-10-31T17:06:23;10.10;;;6.60;;